createdAt,value
2022-11-04T00:00:12.664Z,73.60
2022-11-04T00:01:46.734Z,74.07
2022-11-04T00:03:18.844Z,74.33
2022-11-04T00:04:50.847Z,74.31
2022-11-04T00:06:23.157Z,74.46
2022-11-04T00:08:13.706Z,74.25
2022-11-04T00:09:45.712Z,74.26
2022-11-04T00:13:30.614Z,74.16
2022-11-04T00:15:24.142Z,74.33
2022-11-04T00:17:15.397Z,73.81
2022-11-04T00:18:47.503Z,73.41
2022-11-04T00:20:37.998Z,73.73
2022-11-04T00:22:28.746Z,73.79
2022-11-04T00:24:19.484Z,73.96
2022-11-04T00:26:10.136Z,74.35
2022-11-04T00:28:00.841Z,74.41
2022-11-04T00:29:32.817Z,74.35
2022-11-04T00:31:25.888Z,74.30
2022-11-04T00:33:16.617Z,74.41
2022-11-04T00:34:48.713Z,74.54
2022-11-04T00:36:21.992Z,74.44
2022-11-04T00:37:53.977Z,74.40
2022-11-04T00:39:26.093Z,74.71
2022-11-04T00:40:58.199Z,74.84
2022-11-04T00:42:30.237Z,74.60
2022-11-04T00:44:05.882Z,75.02
2022-11-04T00:45:37.983Z,74.75
2022-11-04T00:47:10.025Z,74.74
2022-11-04T00:48:41.959Z,74.91
2022-11-04T00:50:13.951Z,75.13
2022-11-04T00:51:45.886Z,74.98
2022-11-04T00:53:17.857Z,75.01
2022-11-04T00:54:49.920Z,74.94
2022-11-04T00:56:21.954Z,75.10
2022-11-04T00:57:54.291Z,75.10
2022-11-04T00:59:26.340Z,74.81
2022-11-04T01:00:58.341Z,74.85
2022-11-04T01:02:30.505Z,74.88
2022-11-04T01:04:03.037Z,75.11
2022-11-04T01:05:38.190Z,74.86
2022-11-04T01:07:10.149Z,74.75
2022-11-04T01:08:42.167Z,74.92
2022-11-04T01:10:14.247Z,75.17
2022-11-04T01:11:46.372Z,75.40
2022-11-04T01:13:18.480Z,75.28
2022-11-04T01:14:50.491Z,75.52
2022-11-04T01:16:23.074Z,75.70
2022-11-04T01:17:55.127Z,75.47
2022-11-04T01:19:30.340Z,75.53
2022-11-04T01:21:03.636Z,75.32
2022-11-04T01:22:35.668Z,74.99
2022-11-04T01:24:07.753Z,75.00
2022-11-04T01:25:41.529Z,74.99
2022-11-04T01:27:13.516Z,75.25
2022-11-04T01:28:45.899Z,75.57
2022-11-04T01:30:18.085Z,75.47
2022-11-04T01:31:50.067Z,75.45
2022-11-04T01:33:22.090Z,75.54
2022-11-04T01:34:54.072Z,75.75
2022-11-04T01:36:26.995Z,75.66
2022-11-04T01:37:59.466Z,75.53
2022-11-04T01:39:31.466Z,75.69
2022-11-04T01:41:03.890Z,75.57
2022-11-04T01:42:35.891Z,75.85
2022-11-04T01:44:41.970Z,75.72
2022-11-04T01:46:19.674Z,75.64
2022-11-04T01:48:04.896Z,75.53
2022-11-04T01:49:43.354Z,75.76
2022-11-04T01:51:16.363Z,75.93
2022-11-04T01:52:52.622Z,75.75
2022-11-04T01:54:25.304Z,75.41
2022-11-04T01:55:59.226Z,75.24
2022-11-04T01:57:35.246Z,75.25
2022-11-04T01:59:11.660Z,75.55
2022-11-04T02:00:44.301Z,75.77
2022-11-04T02:02:16.469Z,75.80
2022-11-04T02:03:54.898Z,75.59
2022-11-04T02:05:28.238Z,75.65
2022-11-04T02:07:01.663Z,75.47
2022-11-04T02:08:34.726Z,75.52
2022-11-04T02:10:08.073Z,75.78
2022-11-04T02:11:58.404Z,75.88
2022-11-04T02:13:34.630Z,75.86
2022-11-04T02:15:07.086Z,75.82
2022-11-04T02:16:45.021Z,75.52
2022-11-04T02:18:25.214Z,75.39
2022-11-04T02:20:23.825Z,75.42
2022-11-04T02:22:19.166Z,75.65
2022-11-04T02:25:35.147Z,75.36
2022-11-04T02:27:28.537Z,75.61
2022-11-04T02:29:15.283Z,75.38
2022-11-04T02:30:53.325Z,75.45
2022-11-04T02:32:34.205Z,75.18
2022-11-04T02:34:18.728Z,74.90
2022-11-04T02:36:02.779Z,74.72
2022-11-04T02:37:43.232Z,74.98
2022-11-04T02:39:28.528Z,75.12
2022-11-04T02:41:28.073Z,75.11
2022-11-04T02:43:42.536Z,75.01
2022-11-04T02:45:20.565Z,74.95
2022-11-04T02:47:08.589Z,75.06
2022-11-04T02:48:47.539Z,75.10
2022-11-04T02:50:37.104Z,75.10
2022-11-04T02:52:10.913Z,75.34
2022-11-04T02:53:48.876Z,75.51
2022-11-04T02:55:26.260Z,75.54
2022-11-04T02:57:00.225Z,75.73
2022-11-04T02:58:39.217Z,75.90
2022-11-04T03:00:13.750Z,76.55
2022-11-04T03:01:47.467Z,76.50
2022-11-04T03:03:29.120Z,76.50
2022-11-04T03:05:03.160Z,76.29
2022-11-04T03:06:35.813Z,76.00
2022-11-04T03:08:15.012Z,75.69
2022-11-04T03:09:50.183Z,75.26
2022-11-04T03:11:25.426Z,75.32
2022-11-04T03:13:01.943Z,75.55
2022-11-04T03:14:40.650Z,75.43
2022-11-04T03:16:17.566Z,75.63
2022-11-04T03:18:13.388Z,75.64
2022-11-04T03:19:53.805Z,75.71
2022-11-04T03:21:26.940Z,75.70
2022-11-04T03:23:00.568Z,75.99
2022-11-04T03:24:32.913Z,75.95
2022-11-04T03:26:19.361Z,76.29
2022-11-04T03:28:02.775Z,75.94
2022-11-04T03:29:43.089Z,76.30
2022-11-04T03:31:28.595Z,76.11
2022-11-04T03:33:00.619Z,76.09
2022-11-04T03:34:33.279Z,76.38
2022-11-04T03:36:06.406Z,76.41
2022-11-04T03:37:38.588Z,76.71
2022-11-04T03:39:10.850Z,76.68
2022-11-04T03:40:43.034Z,76.67
2022-11-04T03:42:21.089Z,76.72
2022-11-04T03:43:53.224Z,76.37
2022-11-04T03:45:26.060Z,76.23
2022-11-04T03:46:58.583Z,75.94
2022-11-04T03:48:30.704Z,75.67
2022-11-04T03:50:14.197Z,75.57
2022-11-04T03:51:46.177Z,75.51
2022-11-04T03:53:22.610Z,75.55
2022-11-04T03:54:54.745Z,75.57
2022-11-04T03:56:34.148Z,75.75
2022-11-04T03:58:16.633Z,75.48
2022-11-04T03:59:58.792Z,75.67
2022-11-04T04:02:00.976Z,75.82
2022-11-04T04:03:43.579Z,76.10
2022-11-04T04:05:48.147Z,76.10
2022-11-04T04:07:44.739Z,75.46
2022-11-04T04:09:20.829Z,75.43
2022-11-04T04:11:27.096Z,75.48
2022-11-04T04:13:01.922Z,75.26
2022-11-04T04:14:45.922Z,75.31
2022-11-04T04:16:37.403Z,75.90
2022-11-04T04:18:12.732Z,76.00
2022-11-04T04:19:48.744Z,76.19
2022-11-04T04:22:57.383Z,76.06
2022-11-04T04:24:52.888Z,76.19
2022-11-04T04:26:44.028Z,76.20
2022-11-04T04:28:17.861Z,76.14
2022-11-04T04:29:51.461Z,75.91
2022-11-04T04:31:42.600Z,76.12
2022-11-04T04:33:16.727Z,75.90
2022-11-04T04:34:48.796Z,75.76
2022-11-04T04:36:21.013Z,75.88
2022-11-04T04:37:55.162Z,75.92
2022-11-04T04:39:51.980Z,75.78
2022-11-04T04:41:47.437Z,75.95
2022-11-04T04:43:38.309Z,75.97
2022-11-04T04:45:11.311Z,75.76
2022-11-04T04:46:45.069Z,75.96
2022-11-04T04:48:17.462Z,76.15
2022-11-04T04:49:53.637Z,76.43
2022-11-04T04:51:25.743Z,76.67
2022-11-04T04:52:58.896Z,76.66
2022-11-04T04:54:30.946Z,76.54
2022-11-04T04:56:03.307Z,76.33
2022-11-04T04:57:35.541Z,76.00
2022-11-04T04:59:07.610Z,75.68
2022-11-04T05:00:39.821Z,75.93
2022-11-04T05:02:12.321Z,76.16
2022-11-04T05:03:47.455Z,76.09
2022-11-04T05:05:19.791Z,76.08
2022-11-04T05:06:51.990Z,76.32
2022-11-04T05:08:24.006Z,76.32
2022-11-04T05:09:56.253Z,76.34
2022-11-04T05:11:28.480Z,76.40
2022-11-04T05:13:19.935Z,75.94
2022-11-04T05:14:52.305Z,76.17
2022-11-04T05:16:24.400Z,76.58
2022-11-04T05:17:58.363Z,76.36
2022-11-04T05:19:30.372Z,76.43
2022-11-04T05:21:11.854Z,75.98
2022-11-04T05:22:44.260Z,75.83
2022-11-04T05:24:16.417Z,75.77
2022-11-04T05:25:48.628Z,76.20
2022-11-04T05:27:23.616Z,76.32
2022-11-04T05:28:55.648Z,76.35
2022-11-04T05:30:27.929Z,76.33
2022-11-04T05:32:00.112Z,76.55
2022-11-04T05:33:32.539Z,76.72
2022-11-04T05:35:05.043Z,77.15
2022-11-04T05:36:37.560Z,76.91
2022-11-04T05:38:10.009Z,77.05
2022-11-04T05:39:42.224Z,77.28
2022-11-04T05:41:26.870Z,77.33
2022-11-04T05:43:00.345Z,77.50
2022-11-04T05:44:35.442Z,77.40
2022-11-04T05:46:07.728Z,77.46
2022-11-04T05:47:40.036Z,77.47
2022-11-04T05:49:12.613Z,77.48
2022-11-04T05:50:44.996Z,77.88
2022-11-04T05:52:17.336Z,77.88
2022-11-04T05:53:49.682Z,77.64
2022-11-04T05:55:21.743Z,77.60
2022-11-04T05:56:54.161Z,77.42
2022-11-04T05:58:26.304Z,77.56
2022-11-04T05:59:58.779Z,77.59
2022-11-04T06:01:39.144Z,77.71
2022-11-04T06:03:13.757Z,78.05
2022-11-04T06:04:48.388Z,78.29
2022-11-04T06:06:22.184Z,78.54
2022-11-04T06:07:56.383Z,78.77
2022-11-04T06:09:40.396Z,78.72
2022-11-04T06:11:14.790Z,78.88
2022-11-04T06:12:46.948Z,78.80
2022-11-04T06:14:19.124Z,78.97
2022-11-04T06:15:51.230Z,78.87
2022-11-04T06:17:23.593Z,78.75
2022-11-04T06:18:56.882Z,78.91
2022-11-04T06:20:31.684Z,78.46
2022-11-04T06:22:04.408Z,78.67
2022-11-04T06:23:36.466Z,78.46
2022-11-04T06:26:41.383Z,78.06
2022-11-04T06:28:13.522Z,78.04
2022-11-04T06:29:45.734Z,77.71
2022-11-04T06:31:18.513Z,77.96
2022-11-04T06:32:50.586Z,77.92
2022-11-04T06:34:23.012Z,77.69
2022-11-04T06:35:58.900Z,77.43
2022-11-04T06:37:31.104Z,77.31
2022-11-04T06:39:05.753Z,77.31
2022-11-04T06:40:38.074Z,77.04
2022-11-04T06:42:10.575Z,76.85
2022-11-04T06:43:43.092Z,77.04
2022-11-04T06:45:15.442Z,76.87
2022-11-04T06:46:48.058Z,76.73
2022-11-04T06:48:20.195Z,76.74
2022-11-04T06:49:52.274Z,76.45
2022-11-04T06:51:25.243Z,76.58
2022-11-04T06:52:57.428Z,76.60
2022-11-04T06:54:29.990Z,76.23
2022-11-04T06:56:04.352Z,76.03
2022-11-04T06:57:36.650Z,76.08
2022-11-04T06:59:09.349Z,75.56
2022-11-04T07:00:41.929Z,75.69
2022-11-04T07:02:14.196Z,75.56
2022-11-04T07:03:50.890Z,75.23
2022-11-04T07:05:23.296Z,75.27
2022-11-04T07:06:55.489Z,75.46
2022-11-04T07:08:29.954Z,75.75
2022-11-04T07:10:02.215Z,75.24
2022-11-04T07:11:34.442Z,75.37
2022-11-04T07:13:06.998Z,75.41
2022-11-04T07:14:39.483Z,75.32
2022-11-04T07:16:11.930Z,75.20
2022-11-04T07:17:45.235Z,75.31
2022-11-04T07:19:17.522Z,75.08
2022-11-04T07:20:49.715Z,74.97
2022-11-04T07:22:21.815Z,74.47
2022-11-04T07:25:26.588Z,74.07
2022-11-04T07:26:58.771Z,73.94
2022-11-04T07:28:31.323Z,73.68
2022-11-04T07:30:03.814Z,73.59
2022-11-04T07:31:36.108Z,73.84
2022-11-04T07:33:08.809Z,73.58
2022-11-04T07:34:41.136Z,73.40
2022-11-04T07:36:14.365Z,73.01
2022-11-04T07:37:46.664Z,72.97
2022-11-04T07:39:19.295Z,72.82
2022-11-04T07:40:51.282Z,72.71
2022-11-04T07:42:23.624Z,72.52
2022-11-04T07:43:55.634Z,72.29
2022-11-04T07:45:27.938Z,72.09
2022-11-04T07:47:00.166Z,72.01
2022-11-04T07:48:32.599Z,71.88
2022-11-04T07:50:09.779Z,70.46
2022-11-04T07:51:43.328Z,70.55
2022-11-04T07:53:15.727Z,70.56
2022-11-04T07:54:47.978Z,70.01
2022-11-04T07:56:19.950Z,70.12
2022-11-04T07:57:52.084Z,69.74
2022-11-04T07:59:24.438Z,69.63
2022-11-04T08:01:01.512Z,68.96
2022-11-04T08:02:35.356Z,69.28
2022-11-04T08:04:08.389Z,69.08
2022-11-04T08:05:40.661Z,68.13
2022-11-04T08:07:12.871Z,68.07
2022-11-04T08:08:45.275Z,67.73
2022-11-04T08:10:17.711Z,66.54
2022-11-04T08:11:50.238Z,67.08
2022-11-04T08:13:22.825Z,66.86
2022-11-04T08:14:55.037Z,66.66
2022-11-04T08:16:33.070Z,66.65
2022-11-04T08:18:06.849Z,66.48
2022-11-04T08:19:39.198Z,66.26
2022-11-04T08:21:11.874Z,66.21
2022-11-04T08:22:44.284Z,65.81
2022-11-04T08:24:17.222Z,65.82
2022-11-04T08:25:49.496Z,65.08
2022-11-04T08:27:21.560Z,64.90
2022-11-04T08:28:53.587Z,65.03
2022-11-04T08:30:25.944Z,64.83
2022-11-04T08:31:58.267Z,64.73
2022-11-04T08:33:32.255Z,64.65
2022-11-04T08:35:05.048Z,64.07
2022-11-04T08:36:39.288Z,63.75
2022-11-04T08:38:11.524Z,63.67
2022-11-04T08:39:43.778Z,63.37
2022-11-04T08:41:20.013Z,62.75
2022-11-04T08:42:52.137Z,62.77
2022-11-04T08:44:24.367Z,62.51
2022-11-04T08:45:56.658Z,62.31
2022-11-04T08:47:28.691Z,62.21
2022-11-04T08:49:01.145Z,61.80
2022-11-04T08:50:34.822Z,61.60
2022-11-04T08:52:07.051Z,61.56
2022-11-04T08:53:39.188Z,61.60
2022-11-04T08:55:11.387Z,60.50
2022-11-04T08:56:43.456Z,60.79
2022-11-04T08:58:15.869Z,61.13
2022-11-04T08:59:47.926Z,61.09
2022-11-04T09:01:21.665Z,60.74
2022-11-04T09:02:55.960Z,60.36
2022-11-04T09:04:28.106Z,60.04
2022-11-04T09:06:00.359Z,60.32
2022-11-04T09:07:32.819Z,60.13
2022-11-04T09:09:06.929Z,59.99
2022-11-04T09:10:45.794Z,59.88
2022-11-04T09:12:18.058Z,59.96
2022-11-04T09:13:51.019Z,59.70
2022-11-04T09:15:23.427Z,59.43
2022-11-04T09:16:56.426Z,58.40
2022-11-04T09:18:28.612Z,58.48
2022-11-04T09:20:00.798Z,58.04
2022-11-04T09:21:33.240Z,57.98
2022-11-04T09:24:37.253Z,58.06
2022-11-04T09:26:12.686Z,57.38
2022-11-04T09:27:44.759Z,57.70
2022-11-04T09:29:17.051Z,57.66
2022-11-04T09:30:49.229Z,56.68
2022-11-04T09:32:22.067Z,55.96
2022-11-04T09:33:57.622Z,56.44
2022-11-04T09:35:30.357Z,55.67
2022-11-04T09:37:02.600Z,54.74
2022-11-04T09:38:34.766Z,54.86
2022-11-04T09:40:07.593Z,54.53
2022-11-04T09:41:53.810Z,54.64
2022-11-04T09:43:47.492Z,54.40
2022-11-04T09:45:28.421Z,53.79
2022-11-04T09:47:03.407Z,53.90
2022-11-04T09:48:48.125Z,53.19
2022-11-04T09:50:33.660Z,52.57
2022-11-04T09:52:14.739Z,52.27
2022-11-04T09:53:52.294Z,52.67
2022-11-04T09:55:29.015Z,52.88
2022-11-04T09:57:01.913Z,52.55
2022-11-04T09:58:37.357Z,52.35
2022-11-04T10:00:16.681Z,51.60
2022-11-04T10:02:14.350Z,51.18
2022-11-04T10:04:25.819Z,50.88
2022-11-04T10:06:25.502Z,49.36
2022-11-04T10:08:04.063Z,49.58
2022-11-04T10:10:06.251Z,49.71
2022-11-04T10:11:50.605Z,50.55
2022-11-04T10:13:25.421Z,48.81
2022-11-04T10:15:32.855Z,50.17
2022-11-04T10:17:27.275Z,50.00
2022-11-04T10:19:23.495Z,50.05
2022-11-04T10:21:11.035Z,49.35
2022-11-04T10:22:59.650Z,49.26
2022-11-04T10:24:42.954Z,49.17
2022-11-04T10:27:00.358Z,48.06
2022-11-04T10:28:43.405Z,48.95
2022-11-04T10:30:18.982Z,48.25
2022-11-04T10:31:52.649Z,48.08
2022-11-04T10:33:35.584Z,47.83
2022-11-04T10:35:32.489Z,48.36
2022-11-04T10:37:05.224Z,46.75
2022-11-04T10:38:55.843Z,46.56
2022-11-04T10:40:32.610Z,46.74
2022-11-04T10:42:06.098Z,47.25
2022-11-04T10:43:39.738Z,47.16
2022-11-04T10:45:13.700Z,46.58
2022-11-04T10:47:10.040Z,46.54
2022-11-04T10:48:49.948Z,46.93
2022-11-04T10:50:45.068Z,46.57
2022-11-04T10:53:55.506Z,45.89
2022-11-04T10:56:03.739Z,45.42
2022-11-04T10:57:36.076Z,46.02
2022-11-04T10:59:20.508Z,45.55
2022-11-04T11:00:53.447Z,46.24
2022-11-04T11:02:38.056Z,46.39
2022-11-04T11:04:29.029Z,46.49
2022-11-04T11:06:30.188Z,46.44
2022-11-04T11:08:02.393Z,46.07
2022-11-04T11:09:37.017Z,45.89
2022-11-04T11:11:09.866Z,46.53
2022-11-04T11:12:52.372Z,45.03
2022-11-04T11:14:33.194Z,44.95
2022-11-04T11:16:09.620Z,45.09
2022-11-04T11:17:42.971Z,44.34
2022-11-04T11:19:17.878Z,43.58
2022-11-04T11:21:11.780Z,43.56
2022-11-04T11:22:45.392Z,43.91
2022-11-04T11:24:23.975Z,43.88
2022-11-04T11:25:56.258Z,44.64
2022-11-04T11:27:28.650Z,44.68
2022-11-04T11:29:02.738Z,44.81
2022-11-04T11:30:42.966Z,43.83
2022-11-04T11:32:36.288Z,44.01
2022-11-04T11:34:17.199Z,43.83
2022-11-04T11:36:16.515Z,44.96
2022-11-04T11:37:49.755Z,44.42
2022-11-04T11:39:28.388Z,44.96
2022-11-04T11:41:29.732Z,44.58
2022-11-04T11:43:02.753Z,44.90
2022-11-04T11:44:38.884Z,45.45
2022-11-04T11:46:12.262Z,45.41
2022-11-04T11:47:44.891Z,45.54
2022-11-04T11:49:25.496Z,45.87
2022-11-04T11:52:31.319Z,45.60
2022-11-04T11:54:14.452Z,45.82
2022-11-04T11:56:26.346Z,45.84
2022-11-04T12:02:18.103Z,45.19
2022-11-04T12:10:24.142Z,45.60
2022-11-04T12:12:18.615Z,45.11
2022-11-04T12:14:23.076Z,45.79
2022-11-04T12:16:16.164Z,45.16
2022-11-04T12:18:07.172Z,45.15
2022-11-04T12:21:49.369Z,45.51
2022-11-04T12:23:51.861Z,44.91
2022-11-04T12:25:38.883Z,44.82
2022-11-04T12:27:29.389Z,44.62
2022-11-04T12:29:28.011Z,44.91
2022-11-04T12:31:38.916Z,44.76
2022-11-04T12:33:36.898Z,44.46
2022-11-04T12:35:15.507Z,44.77
2022-11-04T12:36:50.518Z,44.74
2022-11-04T12:38:41.698Z,44.43
2022-11-04T12:40:29.324Z,45.08
2022-11-04T12:42:21.016Z,44.55
2022-11-04T12:44:22.676Z,45.06
2022-11-04T12:46:10.211Z,45.81
2022-11-04T12:47:44.780Z,45.46
2022-11-04T12:49:38.896Z,45.52
2022-11-04T12:51:28.588Z,45.21
2022-11-04T12:53:27.252Z,45.50
2022-11-04T12:55:23.726Z,46.32
2022-11-04T12:57:24.106Z,45.58
2022-11-04T12:59:05.784Z,46.23
2022-11-04T13:00:38.947Z,46.28
2022-11-04T13:55:21.999Z,46.92
2022-11-04T13:57:15.697Z,46.90
2022-11-04T13:58:55.745Z,47.14
2022-11-04T14:00:30.101Z,47.13
2022-11-04T14:02:21.262Z,47.05
2022-11-04T14:04:07.291Z,47.02
2022-11-04T14:05:42.516Z,47.13
2022-11-04T14:07:19.119Z,47.29
2022-11-04T14:09:25.602Z,47.21
2022-11-04T14:10:59.813Z,47.74
2022-11-04T14:12:33.562Z,47.69
2022-11-04T14:14:21.066Z,47.50
2022-11-04T14:16:18.273Z,47.53
2022-11-04T14:17:53.174Z,47.68
2022-11-04T14:19:48.146Z,47.74
2022-11-04T14:21:29.938Z,47.86
2022-11-04T14:23:06.160Z,48.13
2022-11-04T14:24:38.478Z,48.36
2022-11-04T14:26:13.463Z,48.28
2022-11-04T14:27:48.740Z,48.30
2022-11-04T14:29:25.862Z,48.45
2022-11-04T14:31:02.112Z,48.65
2022-11-04T14:32:41.218Z,48.51
2022-11-04T14:34:29.469Z,48.64
2022-11-04T14:36:23.086Z,49.06
2022-11-04T14:37:56.054Z,49.00
2022-11-04T14:39:31.905Z,49.13
2022-11-04T14:41:15.488Z,49.84
2022-11-04T14:42:56.003Z,49.77
2022-11-04T14:44:37.011Z,49.86
2022-11-04T14:46:09.263Z,50.19
2022-11-04T14:47:43.436Z,50.44
2022-11-04T14:49:44.436Z,50.98
2022-11-04T14:51:40.489Z,50.96
2022-11-04T14:54:58.432Z,51.24
2022-11-04T14:56:30.776Z,51.23
2022-11-04T14:58:25.273Z,51.46
2022-11-04T14:59:57.584Z,51.54
2022-11-04T15:01:35.054Z,52.67
2022-11-04T15:03:12.597Z,52.86
2022-11-04T15:04:59.866Z,53.00
2022-11-04T15:06:53.538Z,53.12
2022-11-04T15:08:35.960Z,53.00
2022-11-04T15:10:28.152Z,53.07
2022-11-04T15:12:28.892Z,53.33
2022-11-04T15:14:01.374Z,53.17
2022-11-04T15:15:39.771Z,53.05
2022-11-04T15:17:18.981Z,53.08
2022-11-04T15:18:52.932Z,53.45
2022-11-04T15:20:26.412Z,53.44
2022-11-04T15:22:00.234Z,53.83
2022-11-04T15:23:36.588Z,54.13
2022-11-04T15:25:12.186Z,54.43
2022-11-04T15:26:50.591Z,54.83
2022-11-04T15:28:35.892Z,54.91
2022-11-04T15:30:23.329Z,55.20
2022-11-04T15:32:04.015Z,55.42
2022-11-04T15:33:41.912Z,55.57
2022-11-04T15:35:14.201Z,55.69
2022-11-04T15:36:46.744Z,55.76
2022-11-04T15:38:22.258Z,55.78
2022-11-04T15:39:58.593Z,55.88
2022-11-04T15:41:50.731Z,56.21
2022-11-04T15:43:22.936Z,56.57
2022-11-04T15:44:56.415Z,56.65
2022-11-04T15:46:29.821Z,56.71
2022-11-04T15:48:20.308Z,56.88
2022-11-04T15:49:53.732Z,56.56
2022-11-04T15:51:25.776Z,56.12
2022-11-04T15:52:58.456Z,56.66
2022-11-04T15:54:34.471Z,57.39
2022-11-04T15:56:07.527Z,58.37
2022-11-04T15:57:40.417Z,58.41
2022-11-04T15:59:19.335Z,59.09
2022-11-04T16:00:56.318Z,59.30
2022-11-04T16:02:33.611Z,59.04
2022-11-04T16:04:06.588Z,59.16
2022-11-04T16:05:40.206Z,58.95
2022-11-04T16:07:12.608Z,59.11
2022-11-04T16:09:01.447Z,59.50
2022-11-04T16:10:35.515Z,59.46
2022-11-04T16:12:16.266Z,59.54
2022-11-04T16:13:48.522Z,59.46
2022-11-04T16:15:41.553Z,59.96
2022-11-04T16:17:13.696Z,60.25
2022-11-04T16:18:52.293Z,60.37
2022-11-04T16:20:24.859Z,60.66
2022-11-04T16:22:09.686Z,60.82
2022-11-04T16:23:47.926Z,60.99
2022-11-04T16:25:23.901Z,61.24
2022-11-04T16:26:57.245Z,60.76
2022-11-04T16:28:30.170Z,60.77
2022-11-04T16:30:17.391Z,60.73
2022-11-04T16:32:28.318Z,61.09
2022-11-04T16:34:00.850Z,61.45
2022-11-04T16:35:36.411Z,61.37
2022-11-04T16:37:09.177Z,61.08
2022-11-04T16:38:41.462Z,61.13
2022-11-04T16:40:15.064Z,61.19
2022-11-04T16:41:47.833Z,60.91
2022-11-04T16:43:21.405Z,61.10
2022-11-04T16:45:02.222Z,61.34
2022-11-04T16:46:34.775Z,61.02
2022-11-04T16:48:07.768Z,60.97
2022-11-04T16:49:40.103Z,60.93
2022-11-04T16:51:21.091Z,60.86
2022-11-04T16:52:54.221Z,61.30
2022-11-04T16:54:27.886Z,61.59
2022-11-04T16:56:00.776Z,62.11
2022-11-04T16:57:33.095Z,62.42
2022-11-04T16:59:08.023Z,62.87
2022-11-04T17:00:40.216Z,63.12
2022-11-04T17:02:23.607Z,63.11
2022-11-04T17:03:55.992Z,63.17
2022-11-04T17:05:28.463Z,63.42
2022-11-04T17:07:00.813Z,63.15
2022-11-04T17:08:33.303Z,63.25
2022-11-04T17:10:07.235Z,63.22
2022-11-04T17:11:39.407Z,63.30
2022-11-04T17:13:12.235Z,63.32
2022-11-04T17:14:44.648Z,63.34
2022-11-04T17:16:16.862Z,63.57
2022-11-04T17:17:49.175Z,63.56
2022-11-04T17:19:21.440Z,63.63
2022-11-04T17:20:55.903Z,63.95
2022-11-04T17:22:28.193Z,64.26
2022-11-04T17:24:00.522Z,64.39
2022-11-04T17:25:32.773Z,64.50
2022-11-04T17:27:05.333Z,64.80
2022-11-04T17:28:38.889Z,64.73
2022-11-04T17:30:13.403Z,65.03
2022-11-04T17:31:45.676Z,65.14
2022-11-04T17:33:19.282Z,65.33
2022-11-04T17:34:51.636Z,66.10
2022-11-04T17:36:24.550Z,66.06
2022-11-04T17:37:56.623Z,66.08
2022-11-04T17:39:28.689Z,65.89
2022-11-04T17:41:19.385Z,66.11
2022-11-04T17:43:12.351Z,66.08
2022-11-04T17:44:44.886Z,65.96
2022-11-04T17:46:38.619Z,66.04
2022-11-04T17:48:11.626Z,66.08
2022-11-04T17:49:43.964Z,66.07
2022-11-04T17:51:16.189Z,65.76
2022-11-04T17:52:49.387Z,65.79
2022-11-04T17:54:22.477Z,65.90
2022-11-04T17:55:54.604Z,66.39
2022-11-04T17:57:26.862Z,66.20
2022-11-04T17:59:01.838Z,66.53
2022-11-04T18:00:34.145Z,67.00
2022-11-04T18:02:06.656Z,66.97
2022-11-04T18:03:39.060Z,67.00
2022-11-04T18:05:11.495Z,67.63
2022-11-04T18:06:45.013Z,67.88
2022-11-04T18:08:17.429Z,68.19
2022-11-04T18:09:49.950Z,68.31
2022-11-04T18:11:42.442Z,67.98
2022-11-04T18:13:14.534Z,68.30
2022-11-04T18:14:50.079Z,68.24
2022-11-04T18:16:22.207Z,68.09
2022-11-04T18:17:54.312Z,68.10
2022-11-04T18:19:27.404Z,67.86
2022-11-04T18:21:04.662Z,68.03
2022-11-04T18:22:37.176Z,68.14
2022-11-04T18:24:10.225Z,68.03
2022-11-04T18:25:46.766Z,67.95
2022-11-04T18:27:22.928Z,68.07
2022-11-04T18:28:55.347Z,68.05
2022-11-04T18:30:27.551Z,68.10
2022-11-04T18:31:59.814Z,68.11
2022-11-04T18:33:32.102Z,68.02
2022-11-04T18:35:04.615Z,68.10
2022-11-04T18:38:16.055Z,67.87
2022-11-04T18:39:48.569Z,68.27
2022-11-04T18:41:21.056Z,68.19
2022-11-04T18:42:53.508Z,68.39
2022-11-04T18:44:25.671Z,68.69
2022-11-04T18:45:57.951Z,68.57
2022-11-04T18:47:30.372Z,68.41
2022-11-04T18:49:02.532Z,68.77
2022-11-04T18:50:34.881Z,68.80
2022-11-04T18:52:07.226Z,68.81
2022-11-04T18:53:39.825Z,69.16
2022-11-04T18:55:11.989Z,69.51
2022-11-04T18:56:45.039Z,69.39
2022-11-04T18:58:17.314Z,69.28
2022-11-04T18:59:49.828Z,69.55
2022-11-04T19:01:27.491Z,69.45
2022-11-04T19:02:59.901Z,69.47
2022-11-04T19:04:32.271Z,69.75
2022-11-04T19:06:08.574Z,69.59
2022-11-04T19:07:42.359Z,69.81
2022-11-04T19:09:45.568Z,70.00
2022-11-04T19:11:20.529Z,69.73
2022-11-04T19:13:10.952Z,70.07
2022-11-04T19:14:43.134Z,70.16
2022-11-04T19:16:15.379Z,69.92
2022-11-04T19:17:48.022Z,70.22
2022-11-04T19:19:20.379Z,70.45
2022-11-04T19:20:52.622Z,70.28
2022-11-04T19:22:24.805Z,70.52
2022-11-04T19:24:00.705Z,70.30
2022-11-04T19:25:33.106Z,70.29
2022-11-04T19:27:05.777Z,70.32
2022-11-04T19:28:48.041Z,70.08
2022-11-04T19:30:20.947Z,70.28
2022-11-04T19:31:53.479Z,70.48
2022-11-04T19:33:25.676Z,70.71
2022-11-04T19:34:57.815Z,71.05
2022-11-04T19:38:02.801Z,70.82
2022-11-04T19:39:35.026Z,70.81
2022-11-04T19:41:34.433Z,71.10
2022-11-04T19:43:12.430Z,71.18
2022-11-04T19:44:44.726Z,71.14
2022-11-04T19:46:16.900Z,71.33
2022-11-04T19:47:49.133Z,71.16
2022-11-04T19:49:21.418Z,71.32
2022-11-04T19:50:53.764Z,70.97
2022-11-04T19:52:26.091Z,70.65
2022-11-04T19:53:58.226Z,70.58
2022-11-04T19:55:31.544Z,70.73
2022-11-04T19:57:03.903Z,70.74
2022-11-04T19:58:38.037Z,70.54
2022-11-04T20:00:12.434Z,70.64
2022-11-04T20:01:44.729Z,71.15
2022-11-04T20:03:17.073Z,71.27
2022-11-04T20:04:50.422Z,71.34
2022-11-04T20:07:55.368Z,71.76
2022-11-04T20:09:27.465Z,72.03
2022-11-04T20:11:03.602Z,72.31
2022-11-04T20:12:54.973Z,72.45
2022-11-04T20:14:28.455Z,72.55
2022-11-04T20:16:01.044Z,72.22
2022-11-04T20:17:33.787Z,72.62
2022-11-04T20:19:05.816Z,72.39
2022-11-04T20:20:37.883Z,72.64
2022-11-04T20:22:10.269Z,72.66
2022-11-04T20:23:42.566Z,72.63
2022-11-04T20:25:14.762Z,72.81
2022-11-04T20:26:47.842Z,72.41
2022-11-04T20:28:19.889Z,72.25
2022-11-04T20:29:51.951Z,72.44
2022-11-04T20:31:26.168Z,72.37
2022-11-04T20:32:58.304Z,72.55
2022-11-04T20:34:32.924Z,72.17
2022-11-04T20:36:06.555Z,72.29
2022-11-04T20:37:39.040Z,71.81
2022-11-04T20:39:15.219Z,72.14
2022-11-04T20:40:48.659Z,72.10
2022-11-04T20:42:20.653Z,72.21
2022-11-04T20:43:55.441Z,72.46
2022-11-04T20:45:27.489Z,72.51
2022-11-04T20:47:00.125Z,72.31
2022-11-04T20:48:32.356Z,72.52
2022-11-04T20:50:04.782Z,72.51
2022-11-04T20:51:39.515Z,72.57
2022-11-04T20:53:11.898Z,72.53
2022-11-04T20:54:43.868Z,72.73
2022-11-04T20:56:18.172Z,72.86
2022-11-04T20:57:50.171Z,73.03
2022-11-04T20:59:22.256Z,73.38
2022-11-04T21:00:54.557Z,73.62
2022-11-04T21:02:27.268Z,73.62
2022-11-04T21:04:01.497Z,73.81
2022-11-04T21:05:35.212Z,73.74
2022-11-04T21:07:07.792Z,73.78
2022-11-04T21:08:40.446Z,73.70
2022-11-04T21:10:12.518Z,73.43
2022-11-04T21:11:44.824Z,73.45
2022-11-04T21:13:16.852Z,73.38
2022-11-04T21:14:49.090Z,73.25
2022-11-04T21:16:21.673Z,73.46
2022-11-04T21:17:53.711Z,73.12
2022-11-04T21:19:26.102Z,72.91
2022-11-04T21:20:58.403Z,72.97
2022-11-04T21:22:30.548Z,73.22
2022-11-04T21:24:05.617Z,73.33
2022-11-04T21:25:45.149Z,73.44
2022-11-04T21:27:17.285Z,73.29
2022-11-04T21:28:54.377Z,73.10
2022-11-04T21:30:31.939Z,73.30
2022-11-04T21:32:05.389Z,72.84
2022-11-04T21:33:38.515Z,72.90
2022-11-04T21:35:10.704Z,73.24
2022-11-04T21:36:43.367Z,73.20
2022-11-04T21:38:16.938Z,73.50
2022-11-04T21:39:48.949Z,73.79
2022-11-04T21:41:24.704Z,73.92
2022-11-04T21:42:58.265Z,73.81
2022-11-04T21:44:30.309Z,74.15
2022-11-04T21:46:14.085Z,74.18
2022-11-04T21:47:46.105Z,74.54
2022-11-04T21:49:18.398Z,74.48
2022-11-04T21:50:50.502Z,74.62
2022-11-04T21:52:22.557Z,74.51
2022-11-04T21:53:54.761Z,74.62
2022-11-04T21:55:26.848Z,74.54
2022-11-04T21:58:30.881Z,74.63
2022-11-04T22:00:07.807Z,74.43
2022-11-04T22:01:39.863Z,74.79
2022-11-04T22:03:12.364Z,74.63
2022-11-04T22:04:44.689Z,74.88
2022-11-04T22:06:16.727Z,74.96
2022-11-04T22:08:07.625Z,75.13
2022-11-04T22:09:39.706Z,74.91
2022-11-04T22:11:14.480Z,75.13
2022-11-04T22:12:51.111Z,75.02
2022-11-04T22:14:23.481Z,75.25
2022-11-04T22:15:58.488Z,75.30
2022-11-04T22:17:30.504Z,75.30